Airport View

Enter AWOS ICAO identifier for current METAR.

ex. KFNL

KHSV 191753Z 33013G20KT 10SM CLR 05/M07 A3030 RMK AO2 SLP261 T00501072 10050 20000 58008

19 Jan 2020 18:31

Phone: 256-772-8074

Other Area AWOS: KDCU - KMDQ - KCMD - KFYM

TAF KHSV 191720Z 1918/2018 32012G20KT P6SM SKC FM200000 34010KT P6SM SKC FM200800 36007KT P6SM SKC